Windom, Indiana
Current Conditions -  °F | °C
As of 11:35 AM on Thursday 30 Oct 2014 (Local Time) from KDCY Reporting Station
Clear Clear  
Wind Chill: 48°   Ceiling: Unl
Heat Index: 50°   Visibility: 10mi
Dew Point: 37°   Wind: 5mph
Humidity: 60%   Direction: 110°ESE
Pressure: 30.16"   Gusts: NA
Location:  38.6262°N, 86.7615°W
Report Text: KDCY 301635Z AUTO 11004KT 10SM CLR 10/03 A3016 RMK AO2 T00990025
Loading
Personal Weather Stations






























Interactive Weather Map New forecast layout! Learn more

10-Day Weather Forecast

Advertisements
Track Severe Weather on mobile